sensor_id;sensor_type;location;lat;lon;timestamp;P1;durP1;ratioP1;P2;durP2;ratioP2
29570;SDS011;16814;52.118;11.436;2024-02-28T00:01:59;34.78;;;21.48;;
29570;SDS011;16814;52.118;11.436;2024-02-28T00:04:25;32.83;;;21.00;;
29570;SDS011;16814;52.118;11.436;2024-02-28T00:06:51;33.90;;;20.73;;
29570;SDS011;16814;52.118;11.436;2024-02-28T00:09:16;34.97;;;21.10;;
29570;SDS011;16814;52.118;11.436;2024-02-28T00:11:43;33.35;;;20.08;;
29570;SDS011;16814;52.118;11.436;2024-02-28T00:14:14;31.70;;;19.77;;
29570;SDS011;16814;52.118;11.436;2024-02-28T00:16:41;34.40;;;21.33;;
29570;SDS011;16814;52.118;11.436;2024-02-28T00:19:10;32.58;;;20.67;;
29570;SDS011;16814;52.118;11.436;2024-02-28T00:21:37;33.70;;;20.20;;
29570;SDS011;16814;52.118;11.436;2024-02-28T00:24:03;32.77;;;19.73;;
29570;SDS011;16814;52.118;11.436;2024-02-28T00:26:29;30.88;;;19.45;;
29570;SDS011;16814;52.118;11.436;2024-02-28T00:28:54;31.08;;;19.67;;
29570;SDS011;16814;52.118;11.436;2024-02-28T00:31:20;33.93;;;21.00;;
29570;SDS011;16814;52.118;11.436;2024-02-28T00:33:48;30.23;;;19.15;;
29570;SDS011;16814;52.118;11.436;2024-02-28T00:36:14;34.90;;;20.02;;
29570;SDS011;16814;52.118;11.436;2024-02-28T00:38:43;34.17;;;20.25;;
29570;SDS011;16814;52.118;11.436;2024-02-28T00:41:08;32.92;;;20.02;;
29570;SDS011;16814;52.118;11.436;2024-02-28T00:43:34;29.33;;;19.27;;
29570;SDS011;16814;52.118;11.436;2024-02-28T00:46:00;33.22;;;20.02;;
29570;SDS011;16814;52.118;11.436;2024-02-28T00:48:25;28.47;;;18.40;;
29570;SDS011;16814;52.118;11.436;2024-02-28T00:50:54;29.60;;;17.95;;
29570;SDS011;16814;52.118;11.436;2024-02-28T00:53:19;29.07;;;18.13;;
29570;SDS011;16814;52.118;11.436;2024-02-28T00:55:47;26.92;;;17.20;;
29570;SDS011;16814;52.118;11.436;2024-02-28T00:58:12;26.07;;;17.00;;
29570;SDS011;16814;52.118;11.436;2024-02-28T01:00:38;27.73;;;17.98;;
29570;SDS011;16814;52.118;11.436;2024-02-28T01:03:04;27.07;;;17.70;;
29570;SDS011;16814;52.118;11.436;2024-02-28T01:05:30;28.25;;;17.63;;
29570;SDS011;16814;52.118;11.436;2024-02-28T01:07:56;29.17;;;17.73;;
29570;SDS011;16814;52.118;11.436;2024-02-28T01:10:22;32.27;;;18.70;;
29570;SDS011;16814;52.118;11.436;2024-02-28T01:12:48;29.25;;;18.63;;
29570;SDS011;16814;52.118;11.436;2024-02-28T01:15:13;27.03;;;17.47;;
29570;SDS011;16814;52.118;11.436;2024-02-28T01:17:39;28.77;;;18.08;;
29570;SDS011;16814;52.118;11.436;2024-02-28T01:20:05;28.40;;;17.17;;
29570;SDS011;16814;52.118;11.436;2024-02-28T01:22:35;26.30;;;16.75;;
29570;SDS011;16814;52.118;11.436;2024-02-28T01:25:01;25.43;;;16.23;;
29570;SDS011;16814;52.118;11.436;2024-02-28T01:27:28;26.13;;;16.50;;
29570;SDS011;16814;52.118;11.436;2024-02-28T01:29:53;27.20;;;17.25;;
29570;SDS011;16814;52.118;11.436;2024-02-28T01:32:19;29.08;;;16.27;;
29570;SDS011;16814;52.118;11.436;2024-02-28T01:34:45;26.50;;;16.73;;
29570;SDS011;16814;52.118;11.436;2024-02-28T01:37:11;27.30;;;16.92;;
29570;SDS011;16814;52.118;11.436;2024-02-28T01:39:37;28.17;;;17.33;;
29570;SDS011;16814;52.118;11.436;2024-02-28T01:42:03;27.40;;;16.75;;
29570;SDS011;16814;52.118;11.436;2024-02-28T01:44:28;28.23;;;17.53;;
29570;SDS011;16814;52.118;11.436;2024-02-28T01:46:54;28.02;;;17.13;;
29570;SDS011;16814;52.118;11.436;2024-02-28T01:49:21;29.83;;;18.17;;
29570;SDS011;16814;52.118;11.436;2024-02-28T01:51:48;29.15;;;17.83;;
29570;SDS011;16814;52.118;11.436;2024-02-28T01:54:15;27.80;;;17.83;;
29570;SDS011;16814;52.118;11.436;2024-02-28T01:56:41;27.75;;;17.92;;
29570;SDS011;16814;52.118;11.436;2024-02-28T01:59:07;28.55;;;18.60;;
29570;SDS011;16814;52.118;11.436;2024-02-28T02:01:36;27.85;;;17.73;;
29570;SDS011;16814;52.118;11.436;2024-02-28T02:04:03;28.80;;;18.80;;
29570;SDS011;16814;52.118;11.436;2024-02-28T02:06:30;30.75;;;18.33;;
29570;SDS011;16814;52.118;11.436;2024-02-28T02:08:56;28.03;;;17.73;;
29570;SDS011;16814;52.118;11.436;2024-02-28T02:11:22;28.10;;;17.60;;
29570;SDS011;16814;52.118;11.436;2024-02-28T02:13:52;28.13;;;17.15;;
29570;SDS011;16814;52.118;11.436;2024-02-28T02:16:18;24.80;;;16.42;;
29570;SDS011;16814;52.118;11.436;2024-02-28T02:18:46;24.50;;;16.13;;
29570;SDS011;16814;52.118;11.436;2024-02-28T02:21:13;25.30;;;15.98;;
29570;SDS011;16814;52.118;11.436;2024-02-28T02:23:43;26.42;;;16.80;;
29570;SDS011;16814;52.118;11.436;2024-02-28T02:26:08;25.33;;;16.35;;
29570;SDS011;16814;52.118;11.436;2024-02-28T02:28:34;25.80;;;16.70;;
29570;SDS011;16814;52.118;11.436;2024-02-28T02:31:00;25.05;;;16.85;;
29570;SDS011;16814;52.118;11.436;2024-02-28T02:33:25;25.00;;;17.23;;
29570;SDS011;16814;52.118;11.436;2024-02-28T02:35:51;27.60;;;17.88;;
29570;SDS011;16814;52.118;11.436;2024-02-28T02:38:18;28.90;;;17.55;;
29570;SDS011;16814;52.118;11.436;2024-02-28T02:40:47;25.70;;;16.80;;
29570;SDS011;16814;52.118;11.436;2024-02-28T02:43:17;24.92;;;16.50;;
29570;SDS011;16814;52.118;11.436;2024-02-28T02:45:42;26.42;;;16.73;;
29570;SDS011;16814;52.118;11.436;2024-02-28T02:48:09;25.00;;;16.83;;
29570;SDS011;16814;52.118;11.436;2024-02-28T02:50:35;25.23;;;16.88;;
29570;SDS011;16814;52.118;11.436;2024-02-28T02:53:01;26.00;;;17.75;;
29570;SDS011;16814;52.118;11.436;2024-02-28T02:55:27;26.63;;;17.90;;
29570;SDS011;16814;52.118;11.436;2024-02-28T02:57:54;28.17;;;19.30;;
29570;SDS011;16814;52.118;11.436;2024-02-28T03:00:20;29.30;;;20.20;;
29570;SDS011;16814;52.118;11.436;2024-02-28T03:02:46;31.05;;;20.10;;
29570;SDS011;16814;52.118;11.436;2024-02-28T03:05:12;27.42;;;19.35;;
29570;SDS011;16814;52.118;11.436;2024-02-28T03:07:37;29.30;;;19.00;;
29570;SDS011;16814;52.118;11.436;2024-02-28T03:10:03;31.90;;;19.23;;
29570;SDS011;16814;52.118;11.436;2024-02-28T03:12:29;27.83;;;19.40;;
29570;SDS011;16814;52.118;11.436;2024-02-28T03:14:54;30.08;;;19.98;;
29570;SDS011;16814;52.118;11.436;2024-02-28T03:17:20;30.67;;;20.63;;
29570;SDS011;16814;52.118;11.436;2024-02-28T03:19:45;30.67;;;20.27;;
29570;SDS011;16814;52.118;11.436;2024-02-28T03:22:12;29.05;;;19.58;;
29570;SDS011;16814;52.118;11.436;2024-02-28T03:24:37;30.33;;;20.13;;
29570;SDS011;16814;52.118;11.436;2024-02-28T03:27:03;30.17;;;19.98;;
29570;SDS011;16814;52.118;11.436;2024-02-28T03:29:29;28.63;;;19.35;;
29570;SDS011;16814;52.118;11.436;2024-02-28T03:31:55;27.13;;;18.87;;
29570;SDS011;16814;52.118;11.436;2024-02-28T03:34:21;28.25;;;18.27;;
29570;SDS011;16814;52.118;11.436;2024-02-28T03:36:46;26.55;;;17.92;;
29570;SDS011;16814;52.118;11.436;2024-02-28T03:39:12;28.10;;;18.53;;
29570;SDS011;16814;52.118;11.436;2024-02-28T03:41:38;29.40;;;20.42;;
29570;SDS011;16814;52.118;11.436;2024-02-28T03:44:04;29.80;;;19.90;;
29570;SDS011;16814;52.118;11.436;2024-02-28T03:46:30;27.00;;;19.35;;
29570;SDS011;16814;52.118;11.436;2024-02-28T03:48:55;27.97;;;19.23;;
29570;SDS011;16814;52.118;11.436;2024-02-28T03:51:21;29.83;;;20.20;;
29570;SDS011;16814;52.118;11.436;2024-02-28T03:53:47;30.50;;;20.53;;
29570;SDS011;16814;52.118;11.436;2024-02-28T03:56:13;28.05;;;19.80;;
29570;SDS011;16814;52.118;11.436;2024-02-28T03:58:39;32.80;;;21.70;;
29570;SDS011;16814;52.118;11.436;2024-02-28T04:01:05;32.22;;;22.10;;
29570;SDS011;16814;52.118;11.436;2024-02-28T04:03:31;31.40;;;22.40;;
29570;SDS011;16814;52.118;11.436;2024-02-28T04:05:56;30.50;;;21.42;;
29570;SDS011;16814;52.118;11.436;2024-02-28T04:08:22;28.55;;;20.55;;
29570;SDS011;16814;52.118;11.436;2024-02-28T04:10:48;31.20;;;21.47;;
29570;SDS011;16814;52.118;11.436;2024-02-28T04:13:15;30.92;;;21.25;;
29570;SDS011;16814;52.118;11.436;2024-02-28T04:15:41;33.07;;;22.07;;
29570;SDS011;16814;52.118;11.436;2024-02-28T04:18:06;28.60;;;20.73;;
29570;SDS011;16814;52.118;11.436;2024-02-28T04:20:32;31.92;;;21.73;;
29570;SDS011;16814;52.118;11.436;2024-02-28T04:22:58;31.60;;;22.13;;
29570;SDS011;16814;52.118;11.436;2024-02-28T04:25:23;30.97;;;22.07;;
29570;SDS011;16814;52.118;11.436;2024-02-28T04:27:49;29.17;;;21.70;;
29570;SDS011;16814;52.118;11.436;2024-02-28T04:30:14;33.40;;;22.45;;
29570;SDS011;16814;52.118;11.436;2024-02-28T04:32:40;31.33;;;21.33;;
29570;SDS011;16814;52.118;11.436;2024-02-28T04:35:06;38.58;;;24.25;;
29570;SDS011;16814;52.118;11.436;2024-02-28T04:37:32;34.22;;;22.13;;
29570;SDS011;16814;52.118;11.436;2024-02-28T04:39:59;33.67;;;22.70;;
29570;SDS011;16814;52.118;11.436;2024-02-28T04:42:25;34.25;;;21.92;;
29570;SDS011;16814;52.118;11.436;2024-02-28T04:44:51;34.27;;;23.67;;
29570;SDS011;16814;52.118;11.436;2024-02-28T04:47:16;34.38;;;22.30;;
29570;SDS011;16814;52.118;11.436;2024-02-28T04:49:42;32.07;;;22.27;;
29570;SDS011;16814;52.118;11.436;2024-02-28T04:52:07;30.10;;;21.30;;
29570;SDS011;16814;52.118;11.436;2024-02-28T04:54:33;32.07;;;21.90;;
29570;SDS011;16814;52.118;11.436;2024-02-28T04:56:59;30.57;;;20.70;;
29570;SDS011;16814;52.118;11.436;2024-02-28T04:59:24;30.23;;;20.77;;
29570;SDS011;16814;52.118;11.436;2024-02-28T05:01:50;29.05;;;20.40;;
29570;SDS011;16814;52.118;11.436;2024-02-28T05:04:17;26.55;;;18.23;;
29570;SDS011;16814;52.118;11.436;2024-02-28T05:06:42;25.98;;;19.00;;
29570;SDS011;16814;52.118;11.436;2024-02-28T05:09:08;26.40;;;18.50;;
29570;SDS011;16814;52.118;11.436;2024-02-28T05:11:34;28.23;;;19.13;;
29570;SDS011;16814;52.118;11.436;2024-02-28T05:14:00;26.85;;;17.90;;
29570;SDS011;16814;52.118;11.436;2024-02-28T05:16:26;30.23;;;19.90;;
29570;SDS011;16814;52.118;11.436;2024-02-28T05:18:51;28.23;;;19.43;;
29570;SDS011;16814;52.118;11.436;2024-02-28T05:21:17;36.92;;;22.85;;
29570;SDS011;16814;52.118;11.436;2024-02-28T05:23:42;35.67;;;23.43;;
29570;SDS011;16814;52.118;11.436;2024-02-28T05:26:08;39.53;;;27.70;;
29570;SDS011;16814;52.118;11.436;2024-02-28T05:28:34;37.37;;;26.30;;
29570;SDS011;16814;52.118;11.436;2024-02-28T05:31:42;27.30;;;19.48;;
29570;SDS011;16814;52.118;11.436;2024-02-28T05:33:56;23.73;;;17.13;;
29570;SDS011;16814;52.118;11.436;2024-02-28T05:36:22;24.50;;;17.08;;
29570;SDS011;16814;52.118;11.436;2024-02-28T05:38:48;24.13;;;16.70;;
29570;SDS011;16814;52.118;11.436;2024-02-28T05:41:17;22.98;;;16.50;;
29570;SDS011;16814;52.118;11.436;2024-02-28T05:43:43;23.47;;;16.00;;
29570;SDS011;16814;52.118;11.436;2024-02-28T05:46:09;28.27;;;17.60;;
29570;SDS011;16814;52.118;11.436;2024-02-28T05:48:35;25.73;;;18.55;;
29570;SDS011;16814;52.118;11.436;2024-02-28T05:51:00;26.23;;;17.73;;
29570;SDS011;16814;52.118;11.436;2024-02-28T05:53:28;27.27;;;17.67;;
29570;SDS011;16814;52.118;11.436;2024-02-28T05:55:57;28.92;;;17.58;;
29570;SDS011;16814;52.118;11.436;2024-02-28T05:58:23;23.10;;;16.55;;
29570;SDS011;16814;52.118;11.436;2024-02-28T06:00:50;27.05;;;18.20;;
29570;SDS011;16814;52.118;11.436;2024-02-28T06:03:16;31.27;;;18.52;;
29570;SDS011;16814;52.118;11.436;2024-02-28T06:05:42;25.57;;;16.97;;
29570;SDS011;16814;52.118;11.436;2024-02-28T06:08:07;29.70;;;19.00;;
29570;SDS011;16814;52.118;11.436;2024-02-28T06:10:33;26.63;;;18.10;;
29570;SDS011;16814;52.118;11.436;2024-02-28T06:12:59;29.67;;;18.05;;
29570;SDS011;16814;52.118;11.436;2024-02-28T06:15:25;27.33;;;16.90;;
29570;SDS011;16814;52.118;11.436;2024-02-28T06:17:51;25.17;;;16.52;;
29570;SDS011;16814;52.118;11.436;2024-02-28T06:20:16;24.37;;;17.30;;
29570;SDS011;16814;52.118;11.436;2024-02-28T06:22:42;26.52;;;18.20;;
29570;SDS011;16814;52.118;11.436;2024-02-28T06:25:08;25.73;;;17.43;;
29570;SDS011;16814;52.118;11.436;2024-02-28T06:27:44;25.42;;;16.77;;
29570;SDS011;16814;52.118;11.436;2024-02-28T06:30:10;26.17;;;18.10;;
29570;SDS011;16814;52.118;11.436;2024-02-28T06:32:37;32.22;;;19.45;;
29570;SDS011;16814;52.118;11.436;2024-02-28T06:35:03;30.20;;;19.30;;
29570;SDS011;16814;52.118;11.436;2024-02-28T06:37:29;28.25;;;19.55;;
29570;SDS011;16814;52.118;11.436;2024-02-28T06:39:55;28.33;;;19.50;;
29570;SDS011;16814;52.118;11.436;2024-02-28T06:42:21;28.23;;;19.87;;
29570;SDS011;16814;52.118;11.436;2024-02-28T06:44:46;29.13;;;19.75;;
29570;SDS011;16814;52.118;11.436;2024-02-28T06:47:12;31.25;;;20.13;;
29570;SDS011;16814;52.118;11.436;2024-02-28T06:49:38;31.93;;;20.07;;
29570;SDS011;16814;52.118;11.436;2024-02-28T06:52:04;30.13;;;20.38;;
29570;SDS011;16814;52.118;11.436;2024-02-28T06:54:30;36.65;;;23.63;;
29570;SDS011;16814;52.118;11.436;2024-02-28T06:56:56;32.35;;;21.42;;
29570;SDS011;16814;52.118;11.436;2024-02-28T06:59:22;34.30;;;23.08;;
29570;SDS011;16814;52.118;11.436;2024-02-28T07:01:48;39.33;;;23.05;;
29570;SDS011;16814;52.118;11.436;2024-02-28T07:04:14;36.13;;;23.30;;
29570;SDS011;16814;52.118;11.436;2024-02-28T07:06:39;32.78;;;23.73;;
29570;SDS011;16814;52.118;11.436;2024-02-28T07:09:07;43.43;;;28.63;;
29570;SDS011;16814;52.118;11.436;2024-02-28T07:11:33;40.50;;;28.23;;
29570;SDS011;16814;52.118;11.436;2024-02-28T07:13:59;36.83;;;26.05;;
29570;SDS011;16814;52.118;11.436;2024-02-28T07:16:27;40.75;;;28.20;;
29570;SDS011;16814;52.118;11.436;2024-02-28T07:18:53;39.83;;;28.13;;
29570;SDS011;16814;52.118;11.436;2024-02-28T07:21:19;40.92;;;27.77;;
29570;SDS011;16814;52.118;11.436;2024-02-28T07:23:45;42.03;;;29.43;;
29570;SDS011;16814;52.118;11.436;2024-02-28T07:26:14;47.00;;;32.80;;
29570;SDS011;16814;52.118;11.436;2024-02-28T07:28:40;43.60;;;30.87;;
29570;SDS011;16814;52.118;11.436;2024-02-28T07:31:06;43.90;;;30.30;;
29570;SDS011;16814;52.118;11.436;2024-02-28T07:33:32;42.97;;;28.85;;
29570;SDS011;16814;52.118;11.436;2024-02-28T07:35:57;41.63;;;29.37;;
29570;SDS011;16814;52.118;11.436;2024-02-28T07:38:26;45.35;;;31.23;;
29570;SDS011;16814;52.118;11.436;2024-02-28T07:40:52;52.92;;;32.33;;
29570;SDS011;16814;52.118;11.436;2024-02-28T07:43:18;55.85;;;32.95;;
29570;SDS011;16814;52.118;11.436;2024-02-28T07:45:44;46.47;;;31.90;;
29570;SDS011;16814;52.118;11.436;2024-02-28T07:48:09;52.30;;;34.60;;
29570;SDS011;16814;52.118;11.436;2024-02-28T07:50:35;48.77;;;32.93;;
29570;SDS011;16814;52.118;11.436;2024-02-28T07:53:02;44.67;;;30.02;;
29570;SDS011;16814;52.118;11.436;2024-02-28T07:55:28;43.93;;;31.03;;
29570;SDS011;16814;52.118;11.436;2024-02-28T07:57:53;42.50;;;28.73;;
29570;SDS011;16814;52.118;11.436;2024-02-28T08:00:19;42.73;;;30.07;;
29570;SDS011;16814;52.118;11.436;2024-02-28T08:02:45;41.23;;;29.60;;
29570;SDS011;16814;52.118;11.436;2024-02-28T08:05:11;40.95;;;28.45;;
29570;SDS011;16814;52.118;11.436;2024-02-28T08:07:38;45.17;;;28.50;;
29570;SDS011;16814;52.118;11.436;2024-02-28T08:10:04;44.30;;;27.63;;
29570;SDS011;16814;52.118;11.436;2024-02-28T08:12:34;43.47;;;29.05;;
29570;SDS011;16814;52.118;11.436;2024-02-28T08:15:00;39.25;;;27.38;;
29570;SDS011;16814;52.118;11.436;2024-02-28T08:17:26;41.00;;;28.70;;
29570;SDS011;16814;52.118;11.436;2024-02-28T08:19:53;38.47;;;28.05;;
29570;SDS011;16814;52.118;11.436;2024-02-28T08:22:19;42.35;;;28.90;;
29570;SDS011;16814;52.118;11.436;2024-02-28T08:24:45;38.45;;;27.90;;
29570;SDS011;16814;52.118;11.436;2024-02-28T08:27:10;37.57;;;26.97;;
29570;SDS011;16814;52.118;11.436;2024-02-28T08:29:39;39.65;;;27.60;;
29570;SDS011;16814;52.118;11.436;2024-02-28T08:32:09;42.85;;;29.10;;
29570;SDS011;16814;52.118;11.436;2024-02-28T08:34:35;42.35;;;30.13;;
29570;SDS011;16814;52.118;11.436;2024-02-28T08:37:01;40.70;;;29.07;;
29570;SDS011;16814;52.118;11.436;2024-02-28T08:39:26;45.00;;;30.70;;
29570;SDS011;16814;52.118;11.436;2024-02-28T08:41:52;44.20;;;30.13;;
29570;SDS011;16814;52.118;11.436;2024-02-28T08:44:18;45.75;;;30.88;;
29570;SDS011;16814;52.118;11.436;2024-02-28T08:46:46;44.88;;;31.00;;
29570;SDS011;16814;52.118;11.436;2024-02-28T08:49:13;44.10;;;30.45;;
29570;SDS011;16814;52.118;11.436;2024-02-28T08:51:39;44.88;;;29.95;;
29570;SDS011;16814;52.118;11.436;2024-02-28T08:54:05;46.40;;;31.53;;
29570;SDS011;16814;52.118;11.436;2024-02-28T08:56:31;40.75;;;28.80;;
29570;SDS011;16814;52.118;11.436;2024-02-28T08:58:57;44.70;;;30.42;;
29570;SDS011;16814;52.118;11.436;2024-02-28T09:01:22;43.07;;;30.43;;
29570;SDS011;16814;52.118;11.436;2024-02-28T09:03:48;40.83;;;29.00;;
29570;SDS011;16814;52.118;11.436;2024-02-28T09:06:14;40.78;;;28.27;;
29570;SDS011;16814;52.118;11.436;2024-02-28T09:08:39;41.03;;;27.63;;
29570;SDS011;16814;52.118;11.436;2024-02-28T09:11:05;39.23;;;27.00;;
29570;SDS011;16814;52.118;11.436;2024-02-28T09:13:31;41.72;;;27.98;;
29570;SDS011;16814;52.118;11.436;2024-02-28T09:15:57;40.17;;;28.42;;
29570;SDS011;16814;52.118;11.436;2024-02-28T09:18:23;40.33;;;27.40;;
29570;SDS011;16814;52.118;11.436;2024-02-28T09:20:48;40.47;;;27.33;;
29570;SDS011;16814;52.118;11.436;2024-02-28T09:23:14;41.53;;;27.30;;
29570;SDS011;16814;52.118;11.436;2024-02-28T09:25:40;41.83;;;28.50;;
29570;SDS011;16814;52.118;11.436;2024-02-28T09:28:05;43.83;;;29.63;;
29570;SDS011;16814;52.118;11.436;2024-02-28T09:30:31;41.00;;;29.42;;
29570;SDS011;16814;52.118;11.436;2024-02-28T09:32:56;45.53;;;30.07;;
29570;SDS011;16814;52.118;11.436;2024-02-28T09:35:22;41.47;;;28.42;;
29570;SDS011;16814;52.118;11.436;2024-02-28T09:37:48;43.20;;;29.67;;
29570;SDS011;16814;52.118;11.436;2024-02-28T09:40:13;42.50;;;28.85;;
29570;SDS011;16814;52.118;11.436;2024-02-28T09:42:39;42.90;;;29.23;;
29570;SDS011;16814;52.118;11.436;2024-02-28T09:45:05;42.38;;;28.90;;
29570;SDS011;16814;52.118;11.436;2024-02-28T09:47:35;45.78;;;29.45;;
29570;SDS011;16814;52.118;11.436;2024-02-28T09:50:01;42.60;;;29.50;;
29570;SDS011;16814;52.118;11.436;2024-02-28T09:52:27;52.30;;;29.65;;
29570;SDS011;16814;52.118;11.436;2024-02-28T09:54:53;46.30;;;31.23;;
29570;SDS011;16814;52.118;11.436;2024-02-28T09:57:19;43.53;;;29.55;;
29570;SDS011;16814;52.118;11.436;2024-02-28T09:59:45;43.65;;;28.40;;
29570;SDS011;16814;52.118;11.436;2024-02-28T10:02:12;43.70;;;29.40;;
29570;SDS011;16814;52.118;11.436;2024-02-28T10:04:40;44.30;;;28.67;;
29570;SDS011;16814;52.118;11.436;2024-02-28T10:07:12;43.17;;;29.08;;
29570;SDS011;16814;52.118;11.436;2024-02-28T10:09:38;44.93;;;29.47;;
29570;SDS011;16814;52.118;11.436;2024-02-28T10:12:05;42.13;;;27.27;;
29570;SDS011;16814;52.118;11.436;2024-02-28T10:14:31;41.47;;;28.10;;
29570;SDS011;16814;52.118;11.436;2024-02-28T10:16:56;46.30;;;29.00;;
29570;SDS011;16814;52.118;11.436;2024-02-28T10:19:22;40.30;;;27.53;;
29570;SDS011;16814;52.118;11.436;2024-02-28T10:21:47;40.83;;;26.52;;
29570;SDS011;16814;52.118;11.436;2024-02-28T10:24:13;40.67;;;27.43;;
29570;SDS011;16814;52.118;11.436;2024-02-28T10:26:45;41.42;;;27.73;;
29570;SDS011;16814;52.118;11.436;2024-02-28T10:29:20;36.60;;;25.98;;
29570;SDS011;16814;52.118;11.436;2024-02-28T10:31:50;38.58;;;26.42;;
29570;SDS011;16814;52.118;11.436;2024-02-28T10:34:16;41.70;;;26.40;;
29570;SDS011;16814;52.118;11.436;2024-02-28T10:36:43;43.22;;;27.25;;
29570;SDS011;16814;52.118;11.436;2024-02-28T10:39:11;39.65;;;26.95;;
29570;SDS011;16814;52.118;11.436;2024-02-28T10:41:40;43.13;;;28.43;;
29570;SDS011;16814;52.118;11.436;2024-02-28T10:44:07;44.15;;;28.50;;
29570;SDS011;16814;52.118;11.436;2024-02-28T10:46:33;43.65;;;29.60;;
29570;SDS011;16814;52.118;11.436;2024-02-28T10:49:00;47.78;;;30.33;;
29570;SDS011;16814;52.118;11.436;2024-02-28T10:51:26;45.57;;;30.80;;
29570;SDS011;16814;52.118;11.436;2024-02-28T10:54:02;46.42;;;30.90;;
29570;SDS011;16814;52.118;11.436;2024-02-28T10:56:34;47.50;;;30.25;;
29570;SDS011;16814;52.118;11.436;2024-02-28T10:59:00;41.88;;;29.30;;
29570;SDS011;16814;52.118;11.436;2024-02-28T11:01:27;46.20;;;30.50;;
29570;SDS011;16814;52.118;11.436;2024-02-28T11:03:53;44.63;;;30.70;;
29570;SDS011;16814;52.118;11.436;2024-02-28T11:06:20;47.55;;;31.60;;
29570;SDS011;16814;52.118;11.436;2024-02-28T11:08:47;49.80;;;33.13;;
29570;SDS011;16814;52.118;11.436;2024-02-28T11:11:22;48.30;;;32.85;;
29570;SDS011;16814;52.118;11.436;2024-02-28T11:13:51;43.97;;;29.27;;
29570;SDS011;16814;52.118;11.436;2024-02-28T11:16:28;46.33;;;30.00;;
29570;SDS011;16814;52.118;11.436;2024-02-28T11:18:54;47.35;;;30.75;;
29570;SDS011;16814;52.118;11.436;2024-02-28T11:21:22;47.97;;;31.88;;
29570;SDS011;16814;52.118;11.436;2024-02-28T11:23:50;47.25;;;31.27;;
29570;SDS011;16814;52.118;11.436;2024-02-28T11:26:16;47.37;;;30.90;;
29570;SDS011;16814;52.118;11.436;2024-02-28T11:28:43;44.40;;;30.87;;
29570;SDS011;16814;52.118;11.436;2024-02-28T11:31:08;44.25;;;30.25;;
29570;SDS011;16814;52.118;11.436;2024-02-28T11:33:35;42.70;;;29.40;;
29570;SDS011;16814;52.118;11.436;2024-02-28T11:36:01;47.13;;;30.23;;
29570;SDS011;16814;52.118;11.436;2024-02-28T11:38:28;45.63;;;30.50;;
29570;SDS011;16814;52.118;11.436;2024-02-28T11:40:54;46.05;;;30.23;;
29570;SDS011;16814;52.118;11.436;2024-02-28T11:43:23;49.50;;;30.52;;
29570;SDS011;16814;52.118;11.436;2024-02-28T11:45:48;46.05;;;30.45;;
29570;SDS011;16814;52.118;11.436;2024-02-28T11:48:14;48.90;;;32.03;;
29570;SDS011;16814;52.118;11.436;2024-02-28T11:50:40;49.35;;;29.40;;
29570;SDS011;16814;52.118;11.436;2024-02-28T11:53:06;45.50;;;29.33;;
29570;SDS011;16814;52.118;11.436;2024-02-28T11:55:32;49.20;;;30.45;;
29570;SDS011;16814;52.118;11.436;2024-02-28T11:57:58;47.15;;;30.73;;
29570;SDS011;16814;52.118;11.436;2024-02-28T12:00:24;48.13;;;30.08;;
29570;SDS011;16814;52.118;11.436;2024-02-28T12:02:49;44.30;;;28.30;;
29570;SDS011;16814;52.118;11.436;2024-02-28T12:05:15;43.25;;;27.92;;
29570;SDS011;16814;52.118;11.436;2024-02-28T12:07:41;42.05;;;28.27;;
29570;SDS011;16814;52.118;11.436;2024-02-28T12:10:08;44.83;;;28.23;;
29570;SDS011;16814;52.118;11.436;2024-02-28T12:12:34;44.78;;;27.80;;
29570;SDS011;16814;52.118;11.436;2024-02-28T12:15:00;39.65;;;27.02;;
29570;SDS011;16814;52.118;11.436;2024-02-28T12:17:30;45.37;;;29.07;;
29570;SDS011;16814;52.118;11.436;2024-02-28T12:19:55;44.90;;;28.55;;
29570;SDS011;16814;52.118;11.436;2024-02-28T12:22:23;44.75;;;29.08;;
29570;SDS011;16814;52.118;11.436;2024-02-28T12:24:49;47.63;;;29.85;;
29570;SDS011;16814;52.118;11.436;2024-02-28T12:27:15;49.83;;;29.07;;
29570;SDS011;16814;52.118;11.436;2024-02-28T12:29:40;48.97;;;30.00;;
29570;SDS011;16814;52.118;11.436;2024-02-28T12:32:06;45.90;;;29.50;;
29570;SDS011;16814;52.118;11.436;2024-02-28T12:34:32;50.67;;;31.33;;
29570;SDS011;16814;52.118;11.436;2024-02-28T12:36:58;45.30;;;29.77;;
29570;SDS011;16814;52.118;11.436;2024-02-28T12:39:25;46.70;;;29.13;;
29570;SDS011;16814;52.118;11.436;2024-02-28T12:41:51;47.50;;;30.07;;
29570;SDS011;16814;52.118;11.436;2024-02-28T12:44:16;48.50;;;30.38;;
29570;SDS011;16814;52.118;11.436;2024-02-28T12:46:42;51.07;;;30.07;;
29570;SDS011;16814;52.118;11.436;2024-02-28T12:49:08;51.38;;;30.05;;
29570;SDS011;16814;52.118;11.436;2024-02-28T12:51:38;47.92;;;31.02;;
29570;SDS011;16814;52.118;11.436;2024-02-28T12:54:04;48.70;;;30.70;;
29570;SDS011;16814;52.118;11.436;2024-02-28T12:56:30;47.42;;;28.80;;
29570;SDS011;16814;52.118;11.436;2024-02-28T12:58:55;51.60;;;30.70;;
29570;SDS011;16814;52.118;11.436;2024-02-28T13:01:21;46.53;;;29.13;;
29570;SDS011;16814;52.118;11.436;2024-02-28T13:03:46;52.13;;;29.85;;
29570;SDS011;16814;52.118;11.436;2024-02-28T13:06:13;44.10;;;29.38;;
29570;SDS011;16814;52.118;11.436;2024-02-28T13:08:40;46.30;;;29.08;;
29570;SDS011;16814;52.118;11.436;2024-02-28T13:11:05;45.73;;;28.57;;
29570;SDS011;16814;52.118;11.436;2024-02-28T13:13:32;44.38;;;28.40;;
29570;SDS011;16814;52.118;11.436;2024-02-28T13:15:58;47.27;;;29.20;;
29570;SDS011;16814;52.118;11.436;2024-02-28T13:18:24;43.28;;;28.45;;
29570;SDS011;16814;52.118;11.436;2024-02-28T13:20:50;45.58;;;28.13;;
29570;SDS011;16814;52.118;11.436;2024-02-28T13:23:16;41.83;;;26.98;;
29570;SDS011;16814;52.118;11.436;2024-02-28T13:25:43;44.53;;;27.75;;
29570;SDS011;16814;52.118;11.436;2024-02-28T13:28:09;44.30;;;26.70;;
29570;SDS011;16814;52.118;11.436;2024-02-28T13:30:35;41.13;;;26.83;;
29570;SDS011;16814;52.118;11.436;2024-02-28T13:33:02;45.70;;;27.98;;
29570;SDS011;16814;52.118;11.436;2024-02-28T13:35:28;40.38;;;25.95;;
29570;SDS011;16814;52.118;11.436;2024-02-28T13:37:55;41.53;;;26.10;;
29570;SDS011;16814;52.118;11.436;2024-02-28T13:40:25;44.35;;;27.95;;
29570;SDS011;16814;52.118;11.436;2024-02-28T13:42:51;44.28;;;27.08;;
29570;SDS011;16814;52.118;11.436;2024-02-28T13:45:17;41.93;;;26.40;;
29570;SDS011;16814;52.118;11.436;2024-02-28T13:47:42;37.33;;;25.48;;
29570;SDS011;16814;52.118;11.436;2024-02-28T13:50:08;42.00;;;26.37;;
29570;SDS011;16814;52.118;11.436;2024-02-28T13:52:34;41.78;;;26.25;;
29570;SDS011;16814;52.118;11.436;2024-02-28T13:55:00;42.85;;;26.30;;
29570;SDS011;16814;52.118;11.436;2024-02-28T13:57:26;43.53;;;26.27;;
29570;SDS011;16814;52.118;11.436;2024-02-28T13:59:51;42.63;;;26.13;;
29570;SDS011;16814;52.118;11.436;2024-02-28T14:02:20;41.10;;;25.98;;
29570;SDS011;16814;52.118;11.436;2024-02-28T14:04:47;40.33;;;26.57;;